createdAt,value
2018-11-02T00:01:07.764Z,99533.17
2018-11-02T00:03:36.280Z,99540.12
2018-11-02T00:06:04.832Z,99546.62
2018-11-02T00:08:33.283Z,99547.52
2018-11-02T00:11:01.757Z,99542.73
2018-11-02T00:13:30.279Z,99544.48
2018-11-02T00:15:58.739Z,99551.48
2018-11-02T00:18:27.232Z,99556.81
2018-11-02T00:20:55.671Z,99566.02
2018-11-02T00:23:24.158Z,99559.05
2018-11-02T00:25:52.647Z,99565.62
2018-11-02T00:28:21.067Z,99567.03
2018-11-02T00:30:49.576Z,99567.93
2018-11-02T00:33:18.053Z,99567.98
2018-11-02T00:35:46.583Z,99572.34
2018-11-02T00:38:15.030Z,99566.67
2018-11-02T00:40:43.525Z,99559.30
2018-11-02T00:43:12.007Z,99547.06
2018-11-02T00:45:40.458Z,99533.56
2018-11-02T00:48:08.864Z,99542.91
2018-11-02T00:50:37.334Z,99545.21
2018-11-02T00:53:06.188Z,99558.90
2018-11-02T00:55:34.684Z,99555.90
2018-11-02T00:58:03.088Z,99563.03
2018-11-02T01:00:31.556Z,99570.91
2018-11-02T01:02:59.981Z,99585.42
2018-11-02T01:05:28.404Z,99585.34
2018-11-02T01:07:56.802Z,99588.39
2018-11-02T01:10:25.243Z,99594.45
2018-11-02T01:12:53.659Z,99595.27
2018-11-02T01:15:22.083Z,99597.80
2018-11-02T01:17:50.907Z,99595.59
2018-11-02T01:20:19.384Z,99600.84
2018-11-02T01:22:47.806Z,99603.81
2018-11-02T01:25:16.292Z,99621.28
2018-11-02T01:27:44.727Z,99619.47
2018-11-02T01:30:13.220Z,99617.72
2018-11-02T01:32:41.686Z,99629.43
2018-11-02T01:35:10.282Z,99628.16
2018-11-02T01:37:39.015Z,99625.08
2018-11-02T01:40:08.306Z,99625.11
2018-11-02T01:42:36.928Z,99627.74
2018-11-02T01:45:05.428Z,99635.66
2018-11-02T01:47:33.917Z,99633.17
2018-11-02T01:50:02.377Z,99636.80
2018-11-02T01:52:30.838Z,99642.53
2018-11-02T01:54:59.386Z,99642.61
2018-11-02T01:57:27.843Z,99649.13
2018-11-02T01:59:56.298Z,99646.05
2018-11-02T02:02:24.784Z,99650.00
2018-11-02T02:04:53.266Z,99657.06
2018-11-02T02:07:21.748Z,99654.76
2018-11-02T02:09:50.216Z,99658.71
2018-11-02T02:12:18.709Z,99663.06
2018-11-02T02:14:47.229Z,99665.74
2018-11-02T02:17:15.710Z,99665.28
2018-11-02T02:19:44.125Z,99673.07
2018-11-02T02:22:12.585Z,99675.67
2018-11-02T02:24:41.066Z,99687.34
2018-11-02T02:27:09.529Z,99690.81
2018-11-02T02:29:37.997Z,99691.67
2018-11-02T02:32:06.495Z,99691.70
2018-11-02T02:34:34.964Z,99681.19
2018-11-02T02:37:03.405Z,99684.71
2018-11-02T02:39:31.784Z,99688.19
2018-11-02T02:42:00.236Z,99687.92
2018-11-02T02:44:28.688Z,99693.66
2018-11-02T02:46:57.122Z,99701.06
2018-11-02T02:49:25.570Z,99700.69
2018-11-02T02:51:54.054Z,99716.87
2018-11-02T02:54:22.509Z,99706.38
2018-11-02T02:56:50.990Z,99715.57
2018-11-02T02:59:19.468Z,99727.78
2018-11-02T03:01:47.966Z,99731.26
2018-11-02T03:04:16.431Z,99738.16
2018-11-02T03:06:44.904Z,99747.34
2018-11-02T03:09:13.401Z,99751.77
2018-11-02T03:11:41.867Z,99762.67
2018-11-02T03:14:10.366Z,99762.25
2018-11-02T03:16:38.769Z,99761.80
2018-11-02T03:19:07.300Z,99773.61
2018-11-02T03:21:35.740Z,99767.92
2018-11-02T03:24:04.166Z,99775.34
2018-11-02T03:26:32.603Z,99771.39
2018-11-02T03:29:01.024Z,99773.17
2018-11-02T03:31:29.476Z,99775.75
2018-11-02T03:33:57.920Z,99778.44
2018-11-02T03:36:26.344Z,99789.42
2018-11-02T03:38:54.779Z,99786.83
2018-11-02T03:41:23.265Z,99788.13
2018-11-02T03:43:51.705Z,99792.12
2018-11-02T03:46:20.148Z,99802.58
2018-11-02T03:48:48.587Z,99812.67
2018-11-02T03:51:17.127Z,99819.70
2018-11-02T03:53:45.621Z,99821.93
2018-11-02T03:56:14.153Z,99818.93
2018-11-02T03:58:42.569Z,99832.08
2018-11-02T04:01:11.055Z,99837.74
2018-11-02T04:03:39.571Z,99842.99
2018-11-02T04:06:08.190Z,99836.00
2018-11-02T04:08:36.713Z,99850.88
2018-11-02T04:11:05.235Z,99849.15
2018-11-02T04:13:33.668Z,99847.42
2018-11-02T04:16:02.095Z,99850.46
2018-11-02T04:18:30.744Z,99854.82
2018-11-02T04:20:59.150Z,99864.97
2018-11-02T04:23:27.618Z,99864.95
2018-11-02T04:25:56.060Z,99876.35
2018-11-02T04:28:24.527Z,99877.67
2018-11-02T04:30:52.994Z,99882.08
2018-11-02T04:33:21.388Z,99887.34
2018-11-02T04:35:49.831Z,99890.86
2018-11-02T04:38:18.331Z,99911.87
2018-11-02T04:40:46.846Z,99910.19
2018-11-02T04:43:15.291Z,99918.48
2018-11-02T04:45:43.719Z,99922.47
2018-11-02T04:48:13.197Z,99925.52
2018-11-02T04:50:42.127Z,99928.58
2018-11-02T04:53:10.610Z,99935.25
2018-11-02T04:55:39.166Z,99950.52
2018-11-02T04:58:07.741Z,99941.80
2018-11-02T05:00:36.283Z,99947.95
2018-11-02T05:03:05.186Z,99965.47
2018-11-02T05:05:33.766Z,99960.23
2018-11-02T05:08:02.361Z,99972.45
2018-11-02T05:10:30.829Z,99978.55
2018-11-02T05:12:59.297Z,99969.78
2018-11-02T05:15:27.759Z,99988.20
2018-11-02T05:17:56.226Z,99985.58
2018-11-02T05:20:24.704Z,99989.95
2018-11-02T05:22:53.257Z,99994.77
2018-11-02T05:25:21.735Z,99997.02
2018-11-02T05:27:50.200Z,100007.05
2018-11-02T05:30:18.720Z,100022.38
2018-11-02T05:32:47.214Z,100030.71
2018-11-02T05:35:15.679Z,100032.91
2018-11-02T05:37:44.261Z,100038.16
2018-11-02T05:40:12.796Z,100048.70
2018-11-02T05:42:41.275Z,100051.76
2018-11-02T05:45:09.764Z,100061.86
2018-11-02T05:47:38.235Z,100060.98
2018-11-02T05:50:06.936Z,100070.59
2018-11-02T05:52:35.385Z,100063.61
2018-11-02T05:55:03.871Z,100076.72
2018-11-02T05:57:32.427Z,100074.98
2018-11-02T06:00:00.959Z,100075.41
2018-11-02T06:02:29.417Z,100082.02
2018-11-02T06:04:58.842Z,100087.68
2018-11-02T06:07:27.370Z,100092.47
2018-11-02T06:09:55.922Z,100088.99
2018-11-02T06:12:24.689Z,100096.86
2018-11-02T06:14:53.284Z,100099.91
2018-11-02T06:17:21.833Z,100097.29
2018-11-02T06:19:50.583Z,100105.63
2018-11-02T06:22:19.175Z,100110.88
2018-11-02T06:24:47.637Z,100115.27
2018-11-02T06:27:16.264Z,100117.05
2018-11-02T06:29:44.867Z,100137.11
2018-11-02T06:32:13.471Z,100141.08
2018-11-02T06:34:41.960Z,100142.39
2018-11-02T06:37:10.441Z,100150.75
2018-11-02T06:39:38.955Z,100160.36
2018-11-02T06:42:07.563Z,100166.03
2018-11-02T06:44:36.183Z,100177.88
2018-11-02T06:47:04.745Z,100182.69
2018-11-02T06:49:33.360Z,100184.89
2018-11-02T06:52:01.983Z,100184.86
2018-11-02T06:54:30.494Z,100193.16
2018-11-02T06:56:59.147Z,100194.89
2018-11-02T06:59:27.690Z,100197.95
2018-11-02T07:01:56.235Z,100200.51
2018-11-02T07:04:24.811Z,100205.30
2018-11-02T07:06:53.326Z,100217.53
2018-11-02T07:09:21.806Z,100221.01
2018-11-02T07:11:50.341Z,100225.41
2018-11-02T07:14:18.923Z,100227.11
2018-11-02T07:16:47.426Z,100233.67
2018-11-02T07:19:16.057Z,100233.21
2018-11-02T07:21:44.500Z,100241.55
2018-11-02T07:24:12.987Z,100244.59
2018-11-02T07:26:41.465Z,100259.48
2018-11-02T07:29:10.352Z,100257.72
2018-11-02T07:31:38.852Z,100260.73
2018-11-02T07:34:07.850Z,100263.80
2018-11-02T07:36:36.359Z,100267.27
2018-11-02T07:39:07.247Z,100272.03
2018-11-02T07:41:35.990Z,100264.55
2018-11-02T07:44:04.623Z,100267.57
2018-11-02T07:46:33.272Z,100271.94
2018-11-02T07:49:01.854Z,100270.59
2018-11-02T07:51:30.433Z,100273.17
2018-11-02T07:53:59.058Z,100281.48
2018-11-02T07:56:27.670Z,100283.64
2018-11-02T07:58:56.319Z,100284.03
2018-11-02T08:01:25.101Z,100287.94
2018-11-02T08:03:53.662Z,100293.16
2018-11-02T08:06:22.277Z,100292.73
2018-11-02T08:08:51.001Z,100292.26
2018-11-02T08:11:19.534Z,100293.11
2018-11-02T08:13:48.011Z,100300.44
2018-11-02T08:16:16.633Z,100299.09
2018-11-02T08:18:45.208Z,100306.47
2018-11-02T08:21:13.897Z,100305.98
2018-11-02T08:23:42.366Z,100311.17
2018-11-02T08:26:10.975Z,100309.33
2018-11-02T08:28:39.557Z,100317.08
2018-11-02T08:31:08.092Z,100317.76
2018-11-02T08:33:36.615Z,100319.70
2018-11-02T08:36:05.352Z,100318.27
2018-11-02T08:38:34.101Z,100315.60
2018-11-02T08:41:02.642Z,100321.29
2018-11-02T08:43:31.199Z,100310.78
2018-11-02T08:45:59.731Z,100312.98
2018-11-02T08:48:28.287Z,100325.27
2018-11-02T08:50:56.857Z,100321.75
2018-11-02T08:53:26.035Z,100334.53
2018-11-02T08:55:55.786Z,100332.34
2018-11-02T08:58:24.528Z,100346.85
2018-11-02T09:00:52.892Z,100351.58
2018-11-02T09:03:21.461Z,100352.95
2018-11-02T09:05:50.112Z,100356.17
2018-11-02T09:08:18.786Z,100324.43
2018-11-02T09:10:47.345Z,100356.08
2018-11-02T09:13:15.990Z,100359.95
2018-11-02T09:15:44.529Z,100353.61
2018-11-02T09:18:13.081Z,100356.09
2018-11-02T09:20:41.647Z,100360.12
2018-11-02T09:23:10.226Z,100371.20
2018-11-02T09:25:38.720Z,100371.33
2018-11-02T09:28:07.426Z,100378.67
2018-11-02T09:30:35.941Z,100387.50
2018-11-02T09:33:04.512Z,100392.30
2018-11-02T09:35:33.111Z,100393.77
2018-11-02T09:38:01.680Z,100395.53
2018-11-02T09:40:30.467Z,100392.20
2018-11-02T09:42:59.029Z,100396.58
2018-11-02T09:45:27.638Z,100399.00
2018-11-02T09:47:56.283Z,100405.29
2018-11-02T09:50:24.931Z,100415.80
2018-11-02T09:52:53.545Z,100413.32
2018-11-02T09:55:22.301Z,100417.22
2018-11-02T09:57:51.000Z,100422.61
2018-11-02T10:00:19.611Z,100425.66
2018-11-02T10:02:48.212Z,100421.77
2018-11-02T10:05:16.753Z,100425.03
2018-11-02T10:07:45.367Z,100432.09
2018-11-02T10:10:13.960Z,100434.01
2018-11-02T10:12:42.553Z,100441.50
2018-11-02T10:15:14.012Z,100443.85
2018-11-02T10:17:42.588Z,100449.22
2018-11-02T10:20:11.870Z,100448.97
2018-11-02T10:22:40.524Z,100457.39
2018-11-02T10:25:10.430Z,100458.23
2018-11-02T10:27:40.329Z,100459.92
2018-11-02T10:30:13.444Z,100457.25
2018-11-02T10:32:46.194Z,100453.44
2018-11-02T10:35:14.802Z,100458.08
2018-11-02T10:37:43.307Z,100457.70
2018-11-02T10:40:15.462Z,100465.83
2018-11-02T10:42:45.257Z,100467.24
2018-11-02T10:45:13.879Z,100474.25
2018-11-02T10:47:42.484Z,100469.36
2018-11-02T10:50:11.007Z,100474.74
2018-11-02T10:52:39.502Z,100475.70
2018-11-02T10:55:08.138Z,100481.89
2018-11-02T10:57:36.723Z,100480.26
2018-11-02T11:00:08.069Z,100477.91
2018-11-02T11:02:37.452Z,100483.01
2018-11-02T11:05:07.434Z,100487.10
2018-11-02T11:07:36.111Z,100481.66
2018-11-02T11:10:05.897Z,100482.62
2018-11-02T11:12:34.468Z,100488.17
2018-11-02T11:15:02.948Z,100486.86
2018-11-02T11:17:31.473Z,100495.91
2018-11-02T11:20:00.004Z,100497.53
2018-11-02T11:22:28.676Z,100500.90
2018-11-02T11:24:57.667Z,100499.41
2018-11-02T11:27:26.248Z,100496.73
2018-11-02T11:29:54.887Z,100499.89
2018-11-02T11:32:23.460Z,100506.20
2018-11-02T11:34:52.101Z,100494.20
2018-11-02T11:37:20.622Z,100495.08
2018-11-02T11:39:49.243Z,100495.38
2018-11-02T11:42:17.720Z,100497.84
2018-11-02T11:44:46.319Z,100502.40
2018-11-02T11:47:14.939Z,100502.00
2018-11-02T11:49:43.433Z,100499.77
2018-11-02T11:52:11.958Z,100501.82
2018-11-02T11:54:40.612Z,100508.74
2018-11-02T11:57:08.974Z,100508.39
2018-11-02T11:59:37.408Z,100504.73
2018-11-02T12:02:06.008Z,100517.16
2018-11-02T12:04:34.690Z,100528.19
2018-11-02T12:07:03.333Z,100525.53
2018-11-02T12:09:32.004Z,100525.39
2018-11-02T12:12:00.604Z,100525.14
2018-11-02T12:14:29.268Z,100528.70
2018-11-02T12:16:57.843Z,100531.91
2018-11-02T12:19:26.520Z,100531.45
2018-11-02T12:21:55.346Z,100534.07
2018-11-02T12:24:25.356Z,100536.13
2018-11-02T12:26:53.965Z,100536.25
2018-11-02T12:29:22.518Z,100537.03
2018-11-02T12:31:51.020Z,100534.12
2018-11-02T12:34:19.692Z,100533.31
2018-11-02T12:36:48.241Z,100540.61
2018-11-02T12:39:17.048Z,100544.05
2018-11-02T12:41:45.800Z,100547.08
2018-11-02T12:44:15.227Z,100560.73
2018-11-02T12:46:44.964Z,100546.06
2018-11-02T12:49:14.451Z,100547.27
2018-11-02T12:51:43.235Z,100545.80
2018-11-02T12:54:11.829Z,100539.88
2018-11-02T12:56:40.471Z,100542.26
2018-11-02T12:59:09.051Z,100543.87
2018-11-02T13:01:37.723Z,100551.09
2018-11-02T13:04:06.763Z,100556.09
2018-11-02T13:06:35.419Z,100558.45
2018-11-02T13:09:05.117Z,100561.09
2018-11-02T13:11:33.730Z,100560.25
2018-11-02T13:14:02.367Z,100565.11
2018-11-02T13:16:31.001Z,100564.23
2018-11-02T13:18:59.759Z,100568.23
2018-11-02T13:21:28.301Z,100567.39
2018-11-02T13:23:56.908Z,100565.60
2018-11-02T13:26:25.444Z,100568.19
2018-11-02T13:28:54.090Z,100569.86
2018-11-02T13:31:22.817Z,100575.05
2018-11-02T13:36:36.617Z,100590.45
2018-11-02T13:39:07.988Z,100582.62
2018-11-02T13:41:36.563Z,100577.77
2018-11-02T13:44:05.258Z,100587.89
2018-11-02T13:46:33.984Z,100593.22
2018-11-02T13:49:02.528Z,100598.57
2018-11-02T13:51:31.074Z,100050.73
2018-11-02T13:53:59.675Z,100610.63
2018-11-02T13:56:28.260Z,100612.48
2018-11-02T13:58:57.100Z,100613.87
2018-11-02T14:01:25.977Z,100613.92
2018-11-02T14:03:54.522Z,100619.67
2018-11-02T14:06:23.172Z,100623.69
2018-11-02T14:08:51.680Z,100625.47
2018-11-02T14:11:20.303Z,100636.86
2018-11-02T14:13:48.891Z,100641.70
2018-11-02T14:16:17.428Z,100644.77
2018-11-02T14:18:46.127Z,100656.16
2018-11-02T14:21:14.805Z,100653.09
2018-11-02T14:23:43.496Z,100654.40
2018-11-02T14:26:12.062Z,100659.20
2018-11-02T14:28:40.618Z,100661.00
2018-11-02T14:31:09.167Z,100662.31
2018-11-02T14:33:37.659Z,100665.38
2018-11-02T14:36:06.213Z,100671.95
2018-11-02T14:38:34.796Z,100671.06
2018-11-02T14:41:03.506Z,100678.09
2018-11-02T14:43:31.930Z,100679.88
2018-11-02T14:46:00.523Z,100694.37
2018-11-02T14:48:29.090Z,100693.52
2018-11-02T14:50:57.683Z,100699.26
2018-11-02T14:53:26.461Z,100709.80
2018-11-02T14:55:55.111Z,100734.84
2018-11-02T14:58:23.770Z,100711.13
2018-11-02T15:00:52.513Z,100714.19
2018-11-02T15:03:21.110Z,100723.03
2018-11-02T15:05:50.455Z,100728.34
2018-11-02T15:08:19.164Z,100726.13
2018-11-02T15:10:48.117Z,100733.66
2018-11-02T15:13:16.804Z,100734.16
2018-11-02T15:15:45.343Z,100742.99
2018-11-02T15:18:14.575Z,100743.95
2018-11-02T15:20:43.205Z,100743.52
2018-11-02T15:23:11.956Z,100740.96
2018-11-02T15:25:40.604Z,100742.73
2018-11-02T15:28:09.272Z,100738.82
2018-11-02T15:30:37.894Z,100740.59
2018-11-02T15:33:07.045Z,100738.00
2018-11-02T15:35:35.709Z,100735.85
2018-11-02T15:38:04.276Z,100743.34
2018-11-02T15:40:32.896Z,100747.32
2018-11-02T15:43:01.519Z,100753.49
2018-11-02T15:45:30.095Z,100750.88
2018-11-02T15:47:58.931Z,100756.63
2018-11-02T15:50:27.468Z,100764.53
2018-11-02T15:52:55.965Z,100771.59
2018-11-02T15:55:24.530Z,100765.48
2018-11-02T15:57:53.082Z,100761.55
2018-11-02T16:00:21.634Z,100760.26
2018-11-02T16:02:51.437Z,100759.87
2018-11-02T16:05:20.146Z,100767.33
2018-11-02T16:07:48.795Z,100759.89
2018-11-02T16:10:17.335Z,100756.86
2018-11-02T16:12:45.950Z,100760.81
2018-11-02T16:15:14.497Z,100774.82
2018-11-02T16:17:43.114Z,100773.48
2018-11-02T16:20:13.688Z,100773.51
2018-11-02T16:22:42.641Z,100704.23
2018-11-02T16:25:11.225Z,100782.22
2018-11-02T16:27:39.916Z,100784.41
2018-11-02T16:30:09.035Z,100788.33
2018-11-02T16:32:37.525Z,100793.12
2018-11-02T16:35:06.993Z,100797.48
2018-11-02T16:37:35.545Z,100793.06
2018-11-02T16:40:04.543Z,100796.97
2018-11-02T16:42:33.076Z,100796.06
2018-11-02T16:45:01.683Z,100827.48
2018-11-02T16:47:30.288Z,100816.54
2018-11-02T16:49:58.995Z,100815.22
2018-11-02T16:52:27.565Z,100822.11
2018-11-02T16:54:56.091Z,100823.85
2018-11-02T16:57:26.114Z,100832.52
2018-11-02T16:59:54.595Z,100840.80
2018-11-02T17:02:23.226Z,100847.33
2018-11-02T17:04:51.807Z,100856.48
2018-11-02T17:07:20.404Z,100849.45
2018-11-02T17:09:49.006Z,100854.25
2018-11-02T17:12:17.650Z,100859.48
2018-11-02T17:14:46.245Z,100870.83
2018-11-02T17:17:14.788Z,100879.12
2018-11-02T17:19:43.387Z,100890.47
2018-11-02T17:22:12.110Z,100915.81
2018-11-02T17:24:40.619Z,100895.70
2018-11-02T17:27:09.133Z,100902.65
2018-11-02T17:29:37.710Z,100912.69
2018-11-02T17:32:06.429Z,100911.75
2018-11-02T17:34:35.052Z,100918.28
2018-11-02T17:37:03.718Z,100916.95
2018-11-02T17:39:32.318Z,100919.52
2018-11-02T17:42:00.886Z,100923.89
2018-11-02T17:44:29.476Z,100927.77
2018-11-02T17:46:58.123Z,100930.29
2018-11-02T17:49:26.744Z,100933.72
2018-11-02T17:51:55.388Z,100929.72
2018-11-02T17:54:24.081Z,100933.59
2018-11-02T17:56:52.600Z,100946.16
2018-11-02T17:59:21.327Z,100951.79
2018-11-02T18:01:50.005Z,100952.59
2018-11-02T18:04:18.566Z,100953.79
2018-11-02T18:06:47.363Z,100954.59
2018-11-02T18:09:15.986Z,100953.22
2018-11-02T18:11:44.591Z,100958.84
2018-11-02T18:14:13.135Z,100965.77
2018-11-02T18:16:41.645Z,100968.73
2018-11-02T18:19:10.206Z,100973.01
2018-11-02T18:21:38.794Z,100976.86
2018-11-02T18:24:07.600Z,100977.69
2018-11-02T18:26:36.036Z,100982.86
2018-11-02T18:29:04.648Z,100989.73
2018-11-02T18:31:33.150Z,100989.25
2018-11-02T18:34:01.677Z,100999.19
2018-11-02T18:39:22.829Z,100995.09
2018-11-02T18:41:51.400Z,100999.83
2018-11-02T18:44:20.129Z,101003.67
2018-11-02T18:46:48.867Z,101007.55
2018-11-02T18:49:17.564Z,101009.23
2018-11-02T18:51:46.248Z,101012.22
2018-11-02T18:54:15.073Z,101018.27
2018-11-02T18:56:43.610Z,101026.06
2018-11-02T18:59:12.271Z,101029.00
2018-11-02T19:01:40.828Z,101035.94
2018-11-02T19:04:09.464Z,101033.69
2018-11-02T19:06:38.101Z,101042.39
2018-11-02T19:09:09.071Z,101046.27
2018-11-02T19:11:38.759Z,101055.81
2018-11-02T19:14:07.459Z,101055.31
2018-11-02T19:16:36.080Z,101055.23
2018-11-02T19:19:04.752Z,101056.09
2018-11-02T19:21:33.362Z,101054.69
2018-11-02T19:24:01.913Z,101064.20
2018-11-02T19:26:30.485Z,101063.70
2018-11-02T19:28:59.132Z,101071.94
2018-11-02T19:31:27.751Z,101069.69
2018-11-02T19:33:56.287Z,101078.28
2018-11-02T19:36:24.824Z,101080.84
2018-11-02T19:38:53.331Z,101078.18
2018-11-02T19:41:21.913Z,101081.56
2018-11-02T19:43:50.865Z,101082.86
2018-11-02T19:46:19.496Z,101072.78
2018-11-02T19:48:48.057Z,101067.09
2018-11-02T19:51:16.737Z,101077.04
2018-11-02T19:53:45.311Z,101077.84
2018-11-02T19:56:13.850Z,101076.03
2018-11-02T19:58:42.382Z,101074.23
2018-11-02T20:01:11.173Z,101080.25
2018-11-02T20:03:39.528Z,101086.69
2018-11-02T20:06:08.059Z,101084.42
2018-11-02T20:08:36.568Z,101091.79
2018-11-02T20:11:05.295Z,101096.02
2018-11-02T20:13:33.803Z,101099.84
2018-11-02T20:16:02.372Z,101100.19
2018-11-02T20:18:30.929Z,101104.05
2018-11-02T20:20:59.512Z,101105.75
2018-11-02T20:23:28.127Z,101110.00
2018-11-02T20:25:56.899Z,101115.97
2018-11-02T20:28:25.726Z,101115.45
2018-11-02T20:30:54.267Z,101108.83
2018-11-02T20:33:22.807Z,101107.92
2018-11-02T20:35:51.370Z,101110.92
2018-11-02T20:38:19.916Z,101112.61
2018-11-02T20:40:48.460Z,101109.45
2018-11-02T20:43:17.090Z,101109.89
2018-11-02T20:45:45.582Z,101114.61
2018-11-02T20:48:14.098Z,101110.53
2018-11-02T20:50:42.584Z,101118.34
2018-11-02T20:53:11.168Z,101104.34
2018-11-02T20:55:39.785Z,101102.09
2018-11-02T20:58:08.314Z,101102.88
2018-11-02T21:00:36.790Z,101102.75
2018-11-02T21:03:05.591Z,101114.44
2018-11-02T21:05:34.200Z,101121.39
2018-11-02T21:08:02.815Z,101125.18
2018-11-02T21:10:31.217Z,101133.41
2018-11-02T21:12:59.719Z,101133.34
2018-11-02T21:15:28.220Z,101139.34
2018-11-02T21:17:56.779Z,101137.97
2018-11-02T21:20:26.138Z,101138.30
2018-11-02T21:22:54.613Z,101141.24
2018-11-02T21:25:23.206Z,101142.42
2018-11-02T21:27:51.704Z,101154.09
2018-11-02T21:30:21.804Z,101150.16
2018-11-02T21:32:50.992Z,101153.16
2018-11-02T21:35:20.170Z,101145.69
2018-11-02T21:37:49.464Z,101144.31
2018-11-02T21:40:19.206Z,101149.06
2018-11-02T21:42:47.715Z,100882.06
2018-11-02T21:45:17.576Z,101160.27
2018-11-02T21:47:46.299Z,101151.08
2018-11-02T21:50:15.517Z,101155.73
2018-11-02T21:52:44.122Z,101147.00
2018-11-02T21:55:12.663Z,101154.30
2018-11-02T21:57:41.227Z,101148.14
2018-11-02T22:00:11.966Z,101145.95
2018-11-02T22:02:40.731Z,101150.31
2018-11-02T22:05:10.439Z,101148.16
2018-11-02T22:07:38.903Z,101148.63
2018-11-02T22:10:08.543Z,101152.59
2018-11-02T22:12:37.613Z,101152.64
2018-11-02T22:15:06.475Z,101151.36
2018-11-02T22:17:34.979Z,101159.09
2018-11-02T22:20:03.440Z,101159.50
2018-11-02T22:22:32.115Z,101159.09
2018-11-02T22:25:00.588Z,101168.62
2018-11-02T22:27:29.169Z,101166.86
2018-11-02T22:29:57.645Z,101176.81
2018-11-02T22:32:26.195Z,101173.75
2018-11-02T22:34:54.671Z,101176.73
2018-11-02T22:37:23.231Z,101178.88
2018-11-02T22:39:51.700Z,101178.83
2018-11-02T22:42:20.244Z,101172.23
2018-11-02T22:44:48.759Z,101179.59
2018-11-02T22:47:17.304Z,101179.94
2018-11-02T22:49:45.806Z,101179.45
2018-11-02T22:52:14.340Z,101186.83
2018-11-02T22:54:42.852Z,101188.97
2018-11-02T22:57:11.343Z,101192.41
2018-11-02T22:59:39.879Z,101198.46
2018-11-02T23:02:08.430Z,101191.49
2018-11-02T23:04:36.915Z,101188.42
2018-11-02T23:07:05.532Z,101181.80
2018-11-02T23:09:34.061Z,101178.34
2018-11-02T23:12:02.626Z,101180.05
2018-11-02T23:14:31.374Z,101183.02
2018-11-02T23:17:00.011Z,101193.88
2018-11-02T23:19:28.526Z,101187.72
2018-11-02T23:21:57.044Z,101198.05
2018-11-02T23:24:25.749Z,101194.52
2018-11-02T23:26:54.296Z,101198.74
2018-11-02T23:29:22.821Z,101199.58
2018-11-02T23:31:51.345Z,101205.57
2018-11-02T23:34:19.866Z,101202.07
2018-11-02T23:36:48.401Z,101198.08
2018-11-02T23:39:16.898Z,101193.66
2018-11-02T23:41:45.423Z,101190.13
2018-11-02T23:44:13.892Z,101186.55
2018-11-02T23:46:42.414Z,101184.32
2018-11-02T23:49:10.957Z,101186.00
2018-11-02T23:51:39.513Z,101189.00
2018-11-02T23:54:08.040Z,101187.67
2018-11-02T23:56:37.438Z,101184.61
2018-11-02T23:59:06.343Z,101186.26
